Time;durP1;ratioP1;P1;durP2;ratioP2;P2;SDS_P1;SDS_P2;PMS_P1;PMS_P2;Temp;Humidity;BMP_temperature;BMP_pressure;BME280_temperature;BME280_humidity;BME280_pressure;Samples;Min_cycle;Max_cycle;Signal;HPM_P1;HPM_P2
2023/10/26 00:00:46;;;;;;;39.33;25.15;;;;;;;12.43;100.00;98650.08;1743002;82;21263;-66
2023/10/26 00:03:14;;;;;;;37.73;23.67;;;;;;;12.47;100.00;98637.50;1742980;82;21003;-65
2023/10/26 00:05:43;;;;;;;31.68;20.43;;;;;;;12.49;100.00;98633.41;1742985;81;21055;-65
2023/10/26 00:08:11;;;;;;;24.00;15.48;;;;;;;12.52;100.00;98633.45;1742794;82;21463;-66
2023/10/26 00:10:40;;;;;;;22.58;14.65;;;;;;;12.56;100.00;98638.72;1720299;82;21511;-65
2023/10/26 00:13:08;;;;;;;22.25;14.45;;;;;;;12.56;100.00;98636.80;1742778;82;21033;-65
2023/10/26 00:15:38;;;;;;;23.75;16.02;;;;;;;12.59;100.00;98634.09;1742735;82;21047;-66
2023/10/26 00:18:07;;;;;;;24.25;14.43;;;;;;;12.59;100.00;98618.44;1742891;82;21016;-67
2023/10/26 00:20:35;;;;;;;22.50;13.88;;;;;;;12.61;100.00;98623.68;1742988;82;21055;-65
2023/10/26 00:23:06;;;;;;;20.48;13.55;;;;;;;12.60;100.00;98622.02;1742965;82;21075;-66
2023/10/26 00:25:35;;;;;;;20.55;13.10;;;;;;;12.60;100.00;98625.59;1742992;82;20995;-66
2023/10/26 00:28:05;;;;;;;19.85;12.90;;;;;;;12.60;100.00;98612.41;1742663;82;21035;-66
2023/10/26 00:30:33;;;;;;;19.17;12.90;;;;;;;12.60;100.00;98616.52;1742768;82;21091;-67
2023/10/26 00:33:02;;;;;;;18.42;12.05;;;;;;;12.60;100.00;98605.53;1742684;82;21082;-66
2023/10/26 00:35:31;;;;;;;20.85;13.40;;;;;;;12.60;100.00;98600.05;1742974;82;21078;-66
2023/10/26 00:38:00;;;;;;;20.60;13.83;;;;;;;12.60;100.00;98601.41;1742888;82;21499;-66
2023/10/26 00:40:28;;;;;;;18.85;13.13;;;;;;;12.60;100.00;98600.05;1742887;82;21027;-70
2023/10/26 00:43:06;;;;;;;21.52;13.93;;;;;;;12.60;100.00;98604.16;1742746;82;21035;-66
2023/10/26 00:45:36;;;;;;;21.75;13.75;;;;;;;12.60;100.00;98606.91;1742912;82;21063;-66
2023/10/26 00:48:06;;;;;;;21.45;15.18;;;;;;;12.59;100.00;98610.20;1742930;82;21104;-66
2023/10/26 00:50:34;;;;;;;24.05;15.48;;;;;;;12.59;100.00;98612.12;1743042;82;21007;-66
2023/10/26 00:53:03;;;;;;;23.55;15.93;;;;;;;12.58;100.00;98612.66;1742720;82;21043;-67
2023/10/26 00:55:31;;;;;;;24.47;15.90;;;;;;;12.58;100.00;98608.53;1743023;82;21032;-67
2023/10/26 00:58:00;;;;;;;25.70;17.10;;;;;;;12.59;100.00;98610.74;1743045;82;21067;-65
2023/10/26 01:00:29;;;;;;;26.97;16.93;;;;;;;12.59;100.00;98609.37;1743084;82;21064;-66
2023/10/26 01:02:58;;;;;;;24.65;16.23;;;;;;;12.58;100.00;98603.05;1742752;82;21435;-67
2023/10/26 01:05:26;;;;;;;28.90;18.27;;;;;;;12.58;100.00;98614.03;1746500;82;21106;-67
2023/10/26 01:07:55;;;;;;;25.55;16.42;;;;;;;12.59;100.00;98612.12;1750696;82;21018;-66
2023/10/26 01:10:24;;;;;;;26.68;17.80;;;;;;;12.59;100.00;98615.69;1751055;82;21026;-66
2023/10/26 01:12:53;;;;;;;28.32;18.00;;;;;;;12.61;100.00;98609.95;1750659;82;21030;-65
2023/10/26 01:15:24;;;;;;;26.35;17.67;;;;;;;12.61;100.00;98612.69;1750993;82;21118;-66
2023/10/26 01:17:52;;;;;;;27.20;17.82;;;;;;;12.60;100.00;98611.86;1720028;82;21043;-69
2023/10/26 01:20:23;;;;;;;26.75;16.57;;;;;;;12.61;100.00;98615.44;1720106;82;21086;-67
2023/10/26 01:22:52;;;;;;;27.82;18.20;;;;;;;12.61;100.00;98615.44;1750851;82;20995;-67
2023/10/26 01:25:20;;;;;;;26.48;16.80;;;;;;;12.61;100.00;98610.77;1750885;82;21078;-66
2023/10/26 01:27:49;;;;;;;29.20;18.42;;;;;;;12.60;100.00;98615.98;1751147;82;21506;-66
2023/10/26 01:30:18;;;;;;;26.93;18.50;;;;;;;12.59;100.00;98610.74;1750944;82;21031;-67
2023/10/26 01:32:46;;;;;;;26.00;16.80;;;;;;;12.59;100.00;98606.63;1750300;82;21102;-67
2023/10/26 01:35:15;;;;;;;35.35;20.50;;;;;;;12.58;100.00;98620.06;1750958;82;21066;-66
2023/10/26 01:37:44;;;;;;;29.37;19.57;;;;;;;12.56;100.00;98627.19;1750787;82;21055;-66
2023/10/26 01:40:13;;;;;;;30.48;19.87;;;;;;;12.56;100.00;98623.61;1750699;82;21011;-67
2023/10/26 01:42:41;;;;;;;29.80;18.37;;;;;;;12.55;100.00;98628.27;1750855;82;21482;-67
2023/10/26 01:45:10;;;;;;;25.70;16.93;;;;;;;12.55;100.00;98632.94;1750844;82;21082;-66
2023/10/26 01:47:39;;;;;;;27.75;17.90;;;;;;;12.55;100.00;98633.77;1750712;82;21007;-67
2023/10/26 01:50:09;;;;;;;25.82;16.75;;;;;;;12.54;100.00;98631.28;1750989;82;21439;-66
2023/10/26 01:52:37;;;;;;;26.87;16.70;;;;;;;12.53;100.00;98635.94;1750645;82;21265;-65
2023/10/26 01:55:07;;;;;;;28.12;17.77;;;;;;;12.52;100.00;98632.08;1750642;82;21054;-66
2023/10/26 01:57:35;;;;;;;26.02;16.65;;;;;;;12.51;100.00;98629.03;1750891;82;21050;-67
2023/10/26 02:00:06;;;;;;;24.63;15.08;;;;;;;12.49;100.00;98638.08;1750957;82;21066;-67
2023/10/26 02:02:42;;;;;;;25.75;17.20;;;;;;;12.47;100.00;98631.46;1750813;82;21043;-66
2023/10/26 02:05:11;;;;;;;24.07;15.45;;;;;;;12.46;100.00;98637.20;1748955;82;21083;-66
2023/10/26 02:07:40;;;;;;;24.35;15.83;;;;;;;12.44;100.00;98630.59;1742796;82;21095;-67
2023/10/26 02:10:12;;;;;;;22.82;15.50;;;;;;;12.42;100.00;98638.25;1742670;82;21039;-67
2023/10/26 02:12:42;;;;;;;25.25;16.45;;;;;;;12.40;100.00;98640.42;1743058;82;21007;-67
2023/10/26 02:15:14;;;;;;;26.48;16.93;;;;;;;12.41;100.00;98639.88;1742969;82;21039;-66
2023/10/26 02:17:43;;;;;;;24.32;15.60;;;;;;;12.40;100.00;98642.34;1742809;82;21056;-68
2023/10/26 02:20:11;;;;;;;23.65;15.80;;;;;;;12.38;100.00;98636.55;1742530;82;21027;-67
2023/10/26 02:22:40;;;;;;;25.75;16.12;;;;;;;12.37;100.00;98638.18;1742843;82;20999;-66
2023/10/26 02:25:09;;;;;;;24.00;16.25;;;;;;;12.35;100.00;98640.31;1742699;82;21050;-67
2023/10/26 02:27:38;;;;;;;22.10;15.80;;;;;;;12.35;100.00;98644.44;1742923;82;21047;-66
2023/10/26 02:30:08;;;;;;;24.43;16.32;;;;;;;12.33;100.00;98647.98;1742906;82;21143;-68
2023/10/26 02:32:37;;;;;;;22.93;15.70;;;;;;;12.33;100.00;98643.86;1742796;82;21055;-67
2023/10/26 02:35:08;;;;;;;25.43;17.02;;;;;;;12.32;100.00;98651.27;1742572;80;21051;-68
2023/10/26 02:37:39;;;;;;;24.65;15.43;;;;;;;12.31;100.00;98652.34;1742992;82;20996;-66
2023/10/26 02:40:09;;;;;;;26.25;17.48;;;;;;;12.31;100.00;98656.47;1742816;82;21086;-66
2023/10/26 02:42:38;;;;;;;24.02;15.85;;;;;;;12.31;100.00;98658.38;1742908;82;21509;-67
2023/10/26 02:45:11;;;;;;;30.82;19.37;;;;;;;12.32;100.00;98654.02;1742606;82;21075;-68
2023/10/26 02:47:39;;;;;;;23.25;14.93;;;;;;;12.32;100.00;98654.02;1742730;82;21051;-68
2023/10/26 02:50:08;;;;;;;23.12;15.20;;;;;;;12.30;100.00;98658.92;1742832;82;21007;-67
2023/10/26 02:52:37;;;;;;;22.10;13.72;;;;;;;12.31;100.00;98661.13;1742924;82;21195;-68
2023/10/26 02:55:07;;;;;;;23.62;16.15;;;;;;;12.31;100.00;98662.50;1742685;82;21035;-67
2023/10/26 02:57:36;;;;;;;29.42;18.40;;;;;;;12.31;100.00;98668.83;1742667;82;21086;-67
2023/10/26 03:00:06;;;;;;;29.00;20.27;;;;;;;12.32;100.00;98669.11;1742605;82;21059;-66
2023/10/26 03:02:35;;;;;;;30.37;20.57;;;;;;;12.33;100.00;98665.83;1742698;82;21513;-67
2023/10/26 03:05:05;;;;;;;45.48;28.65;;;;;;;12.33;100.00;98668.03;1742572;82;21032;-67
2023/10/26 03:07:34;;;;;;;42.33;26.00;;;;;;;12.32;100.00;98673.77;1742938;82;21019;-67
2023/10/26 03:10:05;;;;;;;43.75;28.92;;;;;;;12.30;100.00;98676.77;1742965;82;21078;-67
2023/10/26 03:12:34;;;;;;;49.42;32.15;;;;;;;12.32;100.00;98683.39;1720703;82;21031;-68
2023/10/26 03:15:03;;;;;;;51.48;30.92;;;;;;;12.31;100.00;98680.35;1742894;82;21051;-67
2023/10/26 03:17:32;;;;;;;26.70;17.80;;;;;;;12.31;100.00;98678.98;1742892;82;21499;-67
2023/10/26 03:20:01;;;;;;;26.87;18.15;;;;;;;12.30;100.00;98680.06;1742730;82;21027;-66
2023/10/26 03:22:30;;;;;;;22.20;14.40;;;;;;;12.29;100.00;98678.39;1742967;82;21043;-68
2023/10/26 03:24:59;;;;;;;25.05;15.75;;;;;;;12.28;100.00;98681.69;1742822;82;21040;-69
2023/10/26 03:27:27;;;;;;;18.10;12.85;;;;;;;12.29;100.00;98684.72;1742833;82;21047;-67
2023/10/26 03:29:57;;;;;;;22.13;13.68;;;;;;;12.29;100.00;98684.72;1719865;82;21100;-67
2023/10/26 03:32:25;;;;;;;23.27;16.20;;;;;;;12.29;100.00;98683.34;1742841;82;21517;-67
2023/10/26 03:34:56;;;;;;;19.50;13.13;;;;;;;12.29;100.00;98681.97;1742961;82;21047;-67
2023/10/26 03:37:24;;;;;;;17.07;11.70;;;;;;;12.30;100.00;98689.67;1742840;82;21123;-67
2023/10/26 03:39:53;;;;;;;19.05;11.70;;;;;;;12.30;100.00;98698.74;1743008;82;21086;-67
2023/10/26 03:42:21;;;;;;;19.62;12.50;;;;;;;12.30;100.00;98693.79;1742840;82;21055;-68
2023/10/26 03:44:50;;;;;;;19.62;12.50;;;;;;;12.29;100.00;98695.70;1742739;82;21545;-67
2023/10/26 03:47:18;;;;;;;18.87;12.25;;;;;;;12.29;100.00;98692.95;1742813;82;21075;-68
2023/10/26 03:49:51;;;;;;;21.02;14.35;;;;;;;12.30;100.00;98700.11;1743114;82;21047;-68
2023/10/26 03:52:17;;;;;;;20.40;13.70;;;;;;;12.31;100.00;98694.08;1742797;82;21059;-67
2023/10/26 03:54:46;;;;;;;18.85;12.53;;;;;;;12.30;100.00;98701.48;1742897;82;21111;-66
2023/10/26 03:57:16;;;;;;;18.95;12.10;;;;;;;12.31;100.00;98699.03;1742864;82;21063;-68
2023/10/26 03:59:44;;;;;;;17.20;12.13;;;;;;;12.31;100.00;98705.06;1742851;82;21478;-67
2023/10/26 04:02:13;;;;;;;17.60;12.68;;;;;;;12.31;100.00;98700.95;1743047;82;21004;-67
2023/10/26 04:04:42;;;;;;;18.35;11.97;;;;;;;12.31;100.00;98699.57;1742942;82;21054;-72
2023/10/26 04:07:12;;;;;;;16.85;12.25;;;;;;;12.29;100.00;98701.20;1749064;82;21058;-67
2023/10/26 04:09:42;;;;;;;16.95;11.53;;;;;;;12.29;100.00;98711.34;1750957;82;21082;-67
2023/10/26 04:12:10;;;;;;;15.18;11.05;;;;;;;12.27;100.00;98708.85;1750612;82;21030;-67
2023/10/26 04:14:39;;;;;;;18.85;12.23;;;;;;;12.27;100.00;98714.34;1750718;82;21451;-68
2023/10/26 04:17:07;;;;;;;18.85;11.38;;;;;;;12.27;100.00;98719.84;1750717;82;21023;-66
2023/10/26 04:19:35;;;;;;;17.45;11.83;;;;;;;12.27;100.00;98721.21;1750875;82;21137;-68
2023/10/26 04:22:05;;;;;;;18.10;11.85;;;;;;;12.28;100.00;98717.92;1719696;82;21113;-66
2023/10/26 04:24:34;;;;;;;17.80;12.35;;;;;;;12.29;100.00;98719.59;1750757;82;21035;-67
2023/10/26 04:27:04;;;;;;;16.05;11.05;;;;;;;12.27;100.00;98719.84;1750832;82;21022;-67
2023/10/26 04:29:32;;;;;;;18.37;11.95;;;;;;;12.26;100.00;98720.92;1750881;82;21065;-69
2023/10/26 04:32:01;;;;;;;29.42;19.50;;;;;;;12.26;100.00;98725.03;1750873;82;21600;-68
2023/10/26 04:34:30;;;;;;;42.83;27.25;;;;;;;12.26;100.00;98733.27;1750932;82;21047;-69
2023/10/26 04:37:00;;;;;;;27.62;18.35;;;;;;;12.28;100.00;98746.21;1720357;82;21503;-67
2023/10/26 04:39:29;;;;;;;25.75;16.67;;;;;;;12.29;100.00;98743.77;1750881;82;21039;-68
2023/10/26 04:41:58;;;;;;;31.77;20.12;;;;;;;12.30;100.00;98741.30;1750831;82;21073;-68
2023/10/26 04:44:26;;;;;;;27.60;17.87;;;;;;;12.30;100.00;98744.05;1750707;82;21086;-70
2023/10/26 04:46:54;;;;;;;30.90;20.57;;;;;;;12.31;100.00;98749.00;1750399;80;21090;-68
2023/10/26 04:49:23;;;;;;;40.15;26.35;;;;;;;12.32;100.00;98758.91;1750679;82;21066;-68
2023/10/26 04:51:51;;;;;;;28.27;17.45;;;;;;;12.32;100.00;98769.89;1750894;82;21022;-66
2023/10/26 04:54:20;;;;;;;34.03;20.90;;;;;;;12.30;100.00;98766.02;1750761;82;21035;-68
2023/10/26 04:56:48;;;;;;;32.93;21.37;;;;;;;12.31;100.00;98765.48;1750663;82;21491;-67
2023/10/26 04:59:20;;;;;;;23.18;14.98;;;;;;;12.30;100.00;98767.39;1719994;82;21094;-67
2023/10/26 05:01:49;;;;;;;22.75;14.83;;;;;;;12.31;100.00;98765.48;1750768;82;21031;-67
2023/10/26 05:04:18;;;;;;;30.32;19.70;;;;;;;12.33;100.00;98771.02;1750920;82;21019;-67
2023/10/26 05:06:47;;;;;;;22.20;15.08;;;;;;;12.35;100.00;98771.63;1750108;82;21054;-68
2023/10/26 05:09:16;;;;;;;27.10;17.65;;;;;;;12.34;100.00;98776.80;1719740;82;21406;-69
2023/10/26 05:11:45;;;;;;;26.90;18.95;;;;;;;12.34;100.00;98775.42;1750607;82;21474;-66
2023/10/26 05:14:14;;;;;;;26.23;17.62;;;;;;;12.34;100.00;98781.46;1750865;82;21031;-68
2023/10/26 05:16:42;;;;;;;28.42;16.97;;;;;;;12.34;100.00;98783.66;1750795;82;21023;-73
2023/10/26 05:19:11;;;;;;;24.02;16.35;;;;;;;12.34;100.00;98793.28;1750568;82;21415;-69
2023/10/26 05:21:39;;;;;;;28.05;18.10;;;;;;;12.34;100.00;98804.27;1750867;82;21058;-69
2023/10/26 05:24:09;;;;;;;26.55;18.37;;;;;;;12.34;100.00;98802.89;1750720;82;21576;-67
2023/10/26 05:26:39;;;;;;;25.85;16.10;;;;;;;12.35;100.00;98805.09;1750640;82;21067;-68
2023/10/26 05:29:08;;;;;;;26.62;17.23;;;;;;;12.36;100.00;98806.25;1750903;82;21458;-68
2023/10/26 05:31:37;;;;;;;25.57;16.00;;;;;;;12.37;100.00;98796.09;1750561;82;21109;-68
2023/10/26 05:34:06;;;;;;;45.05;27.85;;;;;;;12.37;100.00;98794.72;1750559;82;21062;-66
2023/10/26 05:36:34;;;;;;;38.70;21.70;;;;;;;12.36;100.00;98791.69;1719554;82;21062;-69
2023/10/26 05:39:03;;;;;;;30.27;17.82;;;;;;;12.34;100.00;98786.41;1750461;82;21063;-66
2023/10/26 05:41:33;;;;;;;27.45;15.58;;;;;;;12.35;100.00;98783.13;1750905;82;21106;-67
2023/10/26 05:44:01;;;;;;;29.65;16.82;;;;;;;12.35;100.00;98789.99;1750727;82;21031;-68
2023/10/26 05:46:30;;;;;;;27.62;16.40;;;;;;;12.36;100.00;98795.81;1655059;86;21068;-69
2023/10/26 05:48:58;;;;;;;27.30;13.93;;;;;;;12.37;100.00;98789.23;1654878;86;21116;-68
2023/10/26 05:51:27;;;;;;;33.38;16.52;;;;;;;12.38;100.00;98780.74;1654866;87;21112;-67
2023/10/26 05:53:56;;;;;;;26.93;15.38;;;;;;;12.38;100.00;98788.16;1655107;87;21064;-67
2023/10/26 05:56:25;;;;;;;24.80;15.18;;;;;;;12.37;100.00;98788.69;1655106;87;21137;-68
2023/10/26 05:58:53;;;;;;;24.82;15.75;;;;;;;12.39;100.00;98791.19;1633141;87;21111;-67
2023/10/26 06:01:22;;;;;;;29.90;16.27;;;;;;;12.38;100.00;98788.98;1660908;86;21033;-70
2023/10/26 06:03:51;;;;;;;25.65;15.32;;;;;;;12.42;100.00;98792.06;1670563;82;21039;-69
2023/10/26 06:06:19;;;;;;;28.38;16.07;;;;;;;12.42;100.00;98794.81;1719259;82;21039;-69
2023/10/26 06:08:48;;;;;;;22.65;13.60;;;;;;;12.45;100.00;98798.97;1742436;82;21027;-67
2023/10/26 06:11:17;;;;;;;23.30;14.23;;;;;;;12.45;100.00;98800.34;1742850;82;21031;-68
2023/10/26 06:13:46;;;;;;;21.62;13.62;;;;;;;12.45;100.00;98801.72;1742571;82;21513;-69
2023/10/26 06:16:17;;;;;;;23.45;14.60;;;;;;;12.45;100.00;98798.97;1742737;82;21555;-68
2023/10/26 06:18:48;;;;;;;26.05;14.53;;;;;;;12.46;100.00;98806.97;1742835;82;21160;-66
2023/10/26 06:21:16;;;;;;;22.62;14.18;;;;;;;12.47;100.00;98810.55;1742800;82;21011;-68
2023/10/26 06:23:46;;;;;;;24.95;14.47;;;;;;;12.48;100.00;98806.72;1742853;82;21557;-68
2023/10/26 06:26:15;;;;;;;28.38;17.15;;;;;;;12.50;100.00;98814.17;1742717;82;21090;-70
2023/10/26 06:28:46;;;;;;;28.60;17.98;;;;;;;12.52;100.00;98810.63;1742771;82;21082;-68
2023/10/26 06:31:14;;;;;;;23.65;15.53;;;;;;;12.56;100.00;98810.42;1720699;82;21354;-67
2023/10/26 06:33:43;;;;;;;27.02;16.77;;;;;;;12.58;100.00;98811.01;1743057;82;20991;-68
2023/10/26 06:36:12;;;;;;;30.95;17.20;;;;;;;12.57;100.00;98817.58;1742979;82;21094;-68
2023/10/26 06:38:41;;;;;;;34.40;18.95;;;;;;;12.56;100.00;98816.75;1742708;82;21071;-66
2023/10/26 06:41:09;;;;;;;33.28;18.37;;;;;;;12.56;100.00;98820.88;1742634;82;21023;-68
2023/10/26 06:43:38;;;;;;;32.65;17.37;;;;;;;12.56;100.00;98818.66;1742741;82;21043;-67
2023/10/26 06:46:07;;;;;;;26.20;15.32;;;;;;;12.56;100.00;98820.88;1742621;82;21552;-68
2023/10/26 06:48:36;;;;;;;26.73;15.10;;;;;;;12.58;100.00;98822.83;1742784;82;21051;-69
2023/10/26 06:51:06;;;;;;;31.82;17.17;;;;;;;12.58;100.00;98822.83;1742631;82;21017;-68
2023/10/26 06:53:35;;;;;;;30.50;16.27;;;;;;;12.61;100.00;98825.62;1742708;82;21047;-69
2023/10/26 06:56:11;;;;;;;28.27;17.17;;;;;;;12.64;100.00;98827.33;1742848;82;21042;-69
2023/10/26 06:58:42;;;;;;;28.17;17.20;;;;;;;12.64;100.00;98829.24;1743064;82;21058;-69
2023/10/26 07:01:10;;;;;;;32.95;20.75;;;;;;;12.65;100.00;98831.73;1742982;82;21067;-69
2023/10/26 07:03:41;;;;;;;35.45;20.25;;;;;;;12.66;100.00;98829.82;1741760;82;21079;-69
2023/10/26 07:06:09;;;;;;;37.38;20.17;;;;;;;12.66;100.00;98837.53;1719959;82;21094;-69
2023/10/26 07:08:39;;;;;;;34.85;18.32;;;;;;;12.64;100.00;98836.94;1749901;82;21042;-69
2023/10/26 07:11:08;;;;;;;30.72;18.30;;;;;;;12.65;100.00;98836.41;1750725;82;21058;-69
2023/10/26 07:13:38;;;;;;;29.25;16.65;;;;;;;12.68;100.00;98842.77;1722743;82;21074;-69
2023/10/26 07:16:07;;;;;;;33.95;18.92;;;;;;;12.68;100.00;98835.91;1724476;82;21039;-69
2023/10/26 07:18:37;;;;;;;43.08;23.50;;;;;;;12.68;100.00;98844.14;1744681;82;21095;-67
2023/10/26 07:21:07;;;;;;;176.80;127.42;;;;;;;12.69;100.00;98851.30;1725244;82;21454;-68
2023/10/26 07:23:36;;;;;;;64.05;39.95;;;;;;;12.73;100.00;98844.23;1744418;82;21300;-68
2023/10/26 07:26:05;;;;;;;52.20;32.67;;;;;;;12.78;100.00;98848.98;1745244;82;21074;-67
2023/10/26 07:28:34;;;;;;;45.00;26.05;;;;;;;12.80;100.00;98854.52;1744846;82;21019;-73
2023/10/26 07:31:03;;;;;;;36.05;20.75;;;;;;;12.83;100.00;98862.80;1723671;82;21632;-69
2023/10/26 07:33:32;;;;;;;37.75;20.12;;;;;;;12.84;100.00;98861.17;1744916;82;21014;-70
2023/10/26 07:36:02;;;;;;;31.87;19.82;;;;;;;12.87;100.00;98862.59;1745170;82;21487;-67
2023/10/26 07:38:33;;;;;;;29.10;19.07;;;;;;;12.87;100.00;98866.17;1743908;82;21051;-68
2023/10/26 07:41:05;;;;;;;26.07;16.77;;;;;;;12.87;100.00;98860.67;1745034;82;21086;-69
2023/10/26 07:43:35;;;;;;;23.57;13.35;;;;;;;12.89;100.00;98868.67;1745106;82;21063;-67
2023/10/26 07:46:05;;;;;;;24.43;14.83;;;;;;;12.87;100.00;98865.34;1748466;81;21016;-67
2023/10/26 07:48:35;;;;;;;25.35;15.70;;;;;;;12.88;100.00;98865.63;1751804;82;21036;-71
2023/10/26 07:51:04;;;;;;;29.57;17.52;;;;;;;12.91;100.00;98862.38;1751954;82;21016;-69
2023/10/26 07:53:33;;;;;;;24.43;14.50;;;;;;;12.94;100.00;98862.71;1751840;82;21056;-69
2023/10/26 07:56:03;;;;;;;30.15;18.27;;;;;;;12.97;100.00;98874.58;1751700;82;21468;-68
2023/10/26 07:58:34;;;;;;;26.05;15.80;;;;;;;13.00;100.00;98869.98;1750462;80;21449;-69
2023/10/26 08:01:12;;;;;;;24.57;14.40;;;;;;;13.04;100.00;98874.98;1711260;83;21074;-69
2023/10/26 08:03:41;;;;;;;23.30;14.65;;;;;;;13.08;100.00;98866.52;1756754;81;21025;-68
2023/10/26 08:06:10;;;;;;;20.05;12.58;;;;;;;13.12;100.00;98863.02;1763671;81;21069;-67
2023/10/26 08:08:38;;;;;;;16.97;10.75;;;;;;;13.17;100.00;98856.25;1719126;83;21733;-70
2023/10/26 08:11:11;;;;;;;18.67;12.10;;;;;;;13.26;100.00;98865.73;1716740;83;21074;-66
2023/10/26 08:13:40;;;;;;;16.12;10.63;;;;;;;13.34;100.00;98864.47;1716975;83;21067;-68
2023/10/26 08:16:08;;;;;;;20.57;13.13;;;;;;;13.39;100.00;98867.30;1710771;82;21222;-65
2023/10/26 08:18:42;;;;;;;15.95;11.15;;;;;;;13.49;100.00;98872.11;1747239;80;21031;-66
2023/10/26 08:21:12;;;;;;;14.93;10.10;;;;;;;13.61;100.00;98873.66;1761071;80;21070;-66
2023/10/26 08:23:41;;;;;;;15.48;9.93;;;;;;;13.73;100.00;98879.61;1782476;80;21027;-68
2023/10/26 08:26:10;;;;;;;17.37;10.50;;;;;;;13.83;100.00;98883.88;1761045;80;21035;-65
2023/10/26 08:28:38;;;;;;;16.52;9.75;;;;;;;13.94;100.00;98879.61;1763039;80;21020;-67
2023/10/26 08:31:09;;;;;;;26.17;16.12;;;;;;;14.06;100.00;98888.28;1748608;82;21060;-67
2023/10/26 08:33:38;;;;;;;15.13;9.60;;;;;;;14.16;100.00;98884.27;1723172;82;21126;-67
2023/10/26 08:36:10;;;;;;;14.23;9.23;;;;;;;14.24;100.00;98879.68;1744717;82;21067;-67
2023/10/26 08:38:38;;;;;;;22.32;9.58;;;;;;;14.29;100.00;98882.48;1745162;82;21035;-67
2023/10/26 08:41:08;;;;;;;16.73;9.58;;;;;;;14.27;100.00;98885.50;1745093;82;21498;-68
2023/10/26 08:43:37;;;;;;;13.28;7.70;;;;;;;14.24;100.00;98889.32;1696183;82;21158;-67
2023/10/26 08:46:11;;;;;;;11.48;6.92;;;;;;;14.17;98.61;98897.78;1744880;82;21015;-68
2023/10/26 08:48:39;;;;;;;9.13;6.72;;;;;;;14.09;97.07;98899.62;1744954;82;21487;-67
2023/10/26 08:51:08;;;;;;;10.98;7.37;;;;;;;13.99;95.02;98909.13;1745041;82;21050;-70
2023/10/26 08:53:37;;;;;;;12.30;7.47;;;;;;;13.92;93.74;98902.98;1745010;82;21502;-65
2023/10/26 08:56:08;;;;;;;13.18;7.65;;;;;;;13.93;94.15;98908.23;1744943;82;21058;-71
2023/10/26 08:58:37;;;;;;;10.70;6.62;;;;;;;13.95;93.70;98898.34;1744828;82;21074;-72
2023/10/26 09:01:06;;;;;;;13.20;7.25;;;;;;;13.96;93.53;98893.13;1722687;82;21054;-71
2023/10/26 09:03:37;;;;;;;16.37;7.45;;;;;;;13.98;93.01;98895.08;1744966;82;21075;-69
2023/10/26 09:06:06;;;;;;;10.38;7.80;;;;;;;14.04;93.62;98904.23;1724906;81;21047;-70
2023/10/26 09:08:35;;;;;;;11.45;6.95;;;;;;;14.06;93.47;98897.92;1769962;80;21072;-70
2023/10/26 09:11:21;;;;;;;15.88;8.00;;;;;;;14.06;92.49;98902.89;1767024;80;21033;-70
2023/10/26 09:13:50;;;;;;;11.90;7.20;;;;;;;14.06;92.13;98907.56;1770850;80;21110;-69
2023/10/26 09:16:19;;;;;;;10.43;6.85;;;;;;;14.09;92.49;98910.63;1788157;80;21026;-70
2023/10/26 09:18:50;;;;;;;9.90;6.70;;;;;;;14.13;91.98;98904.90;1758049;80;21086;-70
2023/10/26 09:21:18;;;;;;;9.23;6.55;;;;;;;14.19;92.08;98909.92;1787971;80;21511;-72
2023/10/26 09:23:48;;;;;;;13.28;6.58;;;;;;;14.22;91.21;98912.16;1788147;80;21500;-69
2023/10/26 09:26:16;;;;;;;11.12;7.28;;;;;;;14.25;90.39;98909.72;1758019;80;21098;-70
2023/10/26 09:28:56;;;;;;;11.57;6.78;;;;;;;14.32;91.21;98902.67;1788139;80;21058;-70
2023/10/26 09:31:24;;;;;;;11.33;7.30;;;;;;;14.41;91.61;98902.48;1788060;80;21161;-71
2023/10/26 09:33:53;;;;;;;11.15;6.92;;;;;;;14.47;90.15;98903.41;1788000;80;21030;-73
2023/10/26 09:36:21;;;;;;;11.63;7.30;;;;;;;14.55;90.28;98911.20;1788265;80;21100;-69
2023/10/26 09:38:51;;;;;;;11.63;7.47;;;;;;;14.59;90.26;98909.59;1788046;80;21474;-70
2023/10/26 09:41:21;;;;;;;13.75;7.62;;;;;;;14.66;90.14;98912.97;1788109;80;21092;-71
2023/10/26 09:43:50;;;;;;;11.30;7.00;;;;;;;14.68;89.71;98913.55;1757881;80;21082;-72
2023/10/26 09:46:19;;;;;;;12.88;7.28;;;;;;;14.71;89.63;98906.13;1757801;80;21066;-71
2023/10/26 09:48:48;;;;;;;11.55;7.75;;;;;;;14.73;89.30;98905.32;1788157;80;21085;-71
2023/10/26 09:51:17;;;;;;;12.45;8.23;;;;;;;14.68;89.39;98903.89;1788222;80;21030;-69
2023/10/26 09:53:46;;;;;;;11.10;7.85;;;;;;;14.65;89.51;98907.17;1788203;80;21046;-70
2023/10/26 09:56:22;;;;;;;13.75;8.20;;;;;;;14.64;89.53;98901.38;1788062;80;21034;-71
2023/10/26 09:58:52;;;;;;;12.28;7.10;;;;;;;14.61;88.77;98901.06;1787979;80;21430;-71
2023/10/26 10:01:39;;;;;;;15.32;9.40;;;;;;;14.58;87.74;98895.53;1710056;80;21042;-70
2023/10/26 10:04:10;;;;;;;19.40;13.65;;;;;;;14.57;87.33;98888.35;1788300;80;21102;-70
2023/10/26 10:06:58;;;;;;;18.35;13.05;;;;;;;14.57;87.54;98882.84;1782751;80;21021;-72
2023/10/26 10:09:26;;;;;;;12.60;6.83;;;;;;;14.58;87.16;98883.13;1744611;80;21018;-69
2023/10/26 10:12:15;;;;;;;11.63;6.47;;;;;;;14.62;86.92;98885.64;1690983;83;21322;-72
2023/10/26 10:14:58;;;;;;;9.28;7.08;;;;;;;14.65;86.56;98876.85;1698202;83;21114;-71
2023/10/26 10:17:49;;;;;;;9.05;6.33;;;;;;;14.68;85.35;98879.08;1735478;82;20994;-72
2023/10/26 10:20:23;;;;;;;9.83;6.42;;;;;;;14.67;84.34;98881.56;1691253;85;21063;-71
2023/10/26 10:22:53;;;;;;;9.48;6.53;;;;;;;14.69;85.32;98884.05;1698361;84;21059;-69
2023/10/26 10:25:25;;;;;;;12.68;6.62;;;;;;;14.73;85.72;98881.05;1738444;82;21029;-70
2023/10/26 10:27:58;;;;;;;8.93;6.22;;;;;;;14.77;85.55;98877.52;1718244;82;21046;-75
2023/10/26 10:30:29;;;;;;;9.73;6.72;;;;;;;14.80;85.14;98872.85;1691070;85;21086;-71
2023/10/26 10:32:58;;;;;;;11.10;6.25;;;;;;;14.83;85.31;98874.25;1698429;84;21086;-70
2023/10/26 10:35:43;;;;;;;8.13;5.60;;;;;;;14.88;85.52;98877.89;1738557;81;21058;-71
2023/10/26 10:38:18;;;;;;;9.63;5.92;;;;;;;14.95;85.39;98874.07;1690690;85;21521;-67
2023/10/26 10:41:07;;;;;;;10.03;5.75;;;;;;;15.01;84.19;98885.46;1698226;84;21678;-69
2023/10/26 10:43:44;;;;;;;9.35;6.12;;;;;;;15.07;83.55;98888.55;1738445;81;21543;-70
2023/10/26 10:46:28;;;;;;;10.35;6.33;;;;;;;15.12;82.84;98886.66;1718200;82;21023;-70
2023/10/26 10:49:07;;;;;;;9.93;6.62;;;;;;;15.19;83.02;98887.26;1690878;85;21094;-67
2023/10/26 10:51:41;;;;;;;10.45;6.15;;;;;;;15.25;83.77;98882.61;1698522;84;21054;-68
2023/10/26 10:54:17;;;;;;;11.05;6.72;;;;;;;15.28;83.48;98876.56;1738705;82;21034;-70
2023/10/26 10:56:48;;;;;;;9.58;6.78;;;;;;;15.26;84.06;98874.61;1738538;81;21120;-70
2023/10/26 10:59:25;;;;;;;10.18;6.60;;;;;;;15.29;84.53;98868.56;1690767;85;21459;-70
2023/10/26 11:02:10;;;;;;;9.95;5.97;;;;;;;15.29;83.39;98871.88;1698246;84;21502;-72
2023/10/26 11:04:55;;;;;;;8.60;6.17;;;;;;;15.29;82.56;98877.39;1738596;82;21026;-71
2023/10/26 11:07:29;;;;;;;10.18;5.85;;;;;;;15.29;82.91;98874.08;1734811;81;21079;-71
2023/10/26 11:09:58;;;;;;;12.68;7.03;;;;;;;15.30;81.28;98877.67;1750350;80;21529;-71
2023/10/26 11:12:27;;;;;;;10.45;6.87;;;;;;;15.29;81.47;98878.22;1752769;82;21655;-70
2023/10/26 11:14:56;;;;;;;12.70;7.40;;;;;;;15.31;82.03;98873.27;1752732;82;21002;-71
2023/10/26 11:17:27;;;;;;;11.08;6.85;;;;;;;15.35;82.21;98875.78;1752636;82;21034;-71
2023/10/26 11:19:56;;;;;;;9.15;5.20;;;;;;;15.41;82.19;98872.50;1753096;82;21086;-70
2023/10/26 11:22:24;;;;;;;8.55;5.60;;;;;;;15.45;81.62;98874.46;1740244;82;21552;-72
2023/10/26 11:24:53;;;;;;;7.58;5.53;;;;;;;15.50;81.01;98878.63;1758687;80;21024;-71
2023/10/26 11:27:22;;;;;;;8.30;5.83;;;;;;;15.54;81.25;98881.14;1759282;81;21129;-71